^^
Station Historical Data
Daily Summary for April 4, 2019 Units:  English    Metric   Both
« Previous Day
Next Day »
Daily Weekly Monthly Yearly Custom
  High: Low: Average:
Temperature: 51.0 °F 30.3 °F 39.4 °F
Dew Point: 42.5 °F 23.6 °F 35.3 °F
Humidity: 94% 72% 85%
Wind Speed: 24.0mph 1.0mph 12mph
Wind Gust: 29.0mph - -
Wind- - SSE
Pressure: 30.12 in 29.80 in -
Precipitation: 0.00 in    
Historical Graphs
 
 
Tabular Data for April 4, 2019
Time Temperature Dew Point Pressure Wind Wind Speed Wind Gust Humidity Rainfall Rate (Hourly) solar Conditions
00:04 30.3 °F 23.6 °F 30.12 in ESE 8.0 mph 15.0 mph 76% 0.00 in 0.00 W/m2
00:09 30.3 °F 23.6 °F 30.12 in ESE 12.0 mph 15.0 mph 76% 0.00 in 0.00 W/m2
00:14 30.4 °F 23.7 °F 30.12 in ESE 9.0 mph 14.0 mph 76% 0.00 in 0.00 W/m2
00:19 30.5 °F 24.1 °F 30.12 in ESE 9.0 mph 14.0 mph 77% 0.00 in 0.00 W/m2
00:24 30.7 °F 24.3 °F 30.12 in SE 13.0 mph 14.0 mph 77% 0.00 in 0.00 W/m2
00:29 30.9 °F 24.5 °F 30.12 in SE 8.0 mph 15.0 mph 77% 0.00 in 0.00 W/m2
00:34 31.1 °F 24.7 °F 30.12 in SE 14.0 mph 16.0 mph 77% 0.00 in 0.00 W/m2
00:39 31.3 °F 24.6 °F 30.12 in ESE 8.0 mph 16.0 mph 76% 0.00 in 0.00 W/m2
00:44 31.5 °F 24.8 °F 30.12 in ESE 11.0 mph 16.0 mph 76% 0.00 in 0.00 W/m2
00:49 31.7 °F 24.7 °F 30.12 in SSE 8.0 mph 16.0 mph 75% 0.00 in 0.00 W/m2
00:54 31.9 °F 24.9 °F 30.12 in SE 8.0 mph 21.0 mph 75% 0.00 in 0.00 W/m2
00:59 32.0 °F 25.0 °F 30.12 in SE 9.0 mph 21.0 mph 75% 0.00 in 0.00 W/m2
01:04 32.0 °F 25.0 °F 30.12 in ESE 12.0 mph 15.0 mph 75% 0.00 in 0.00 W/m2
01:09 32.1 °F 25.4 °F 30.12 in ESE 12.0 mph 14.0 mph 76% 0.00 in 0.00 W/m2
01:14 32.1 °F 25.4 °F 30.12 in SE 7.0 mph 14.0 mph 76% 0.00 in 0.00 W/m2
01:19 32.3 °F 25.6 °F 30.12 in SE 12.0 mph 15.0 mph 76% 0.00 in 0.00 W/m2
01:24 32.3 °F 25.6 °F 30.12 in SE 10.0 mph 15.0 mph 76% 0.00 in 0.00 W/m2
01:29 32.3 °F 25.6 °F 30.11 in SE 8.0 mph 13.0 mph 76% 0.00 in 0.00 W/m2
01:34 32.3 °F 25.9 °F 30.11 in SE 11.0 mph 13.0 mph 77% 0.00 in 0.00 W/m2
01:39 32.3 °F 25.6 °F 30.11 in SSE 8.0 mph 13.0 mph 76% 0.00 in 0.00 W/m2
01:44 32.4 °F 25.7 °F 30.11 in SSE 8.0 mph 13.0 mph 76% 0.00 in 0.00 W/m2
01:49 32.5 °F 26.1 °F 30.11 in SSE 8.0 mph 13.0 mph 77% 0.00 in 0.00 W/m2
01:54 32.4 °F 26.0 °F 30.10 in ESE 15.0 mph 18.0 mph 77% 0.00 in 0.00 W/m2
01:59 32.5 °F 26.1 °F 30.10 in SE 12.0 mph 20.0 mph 77% 0.00 in 0.00 W/m2
02:04 32.6 °F 26.2 °F 30.10 in SE 11.0 mph 20.0 mph 77% 0.00 in 0.00 W/m2
02:09 32.6 °F 26.2 °F 30.10 in SE 14.0 mph 18.0 mph 77% 0.00 in 0.00 W/m2
02:14 32.6 °F 26.5 °F 30.10 in SE 12.0 mph 17.0 mph 78% 0.00 in 0.00 W/m2
02:19 32.6 °F 26.5 °F 30.10 in ESE 12.0 mph 17.0 mph 78% 0.00 in 0.00 W/m2
02:24 32.7 °F 26.6 °F 30.10 in ESE 13.0 mph 17.0 mph 78% 0.00 in 0.00 W/m2
02:29 32.8 °F 26.7 °F 30.10 in SE 10.0 mph 16.0 mph 78% 0.00 in 0.00 W/m2
02:34 32.8 °F 27.0 °F 30.10 in SE 10.0 mph 14.0 mph 79% 0.00 in 0.00 W/m2
02:39 33.0 °F 27.5 °F 30.10 in SE 13.0 mph 16.0 mph 80% 0.00 in 0.00 W/m2
02:44 33.6 °F 28.1 °F 30.10 in SE 10.0 mph 20.0 mph 80% 0.00 in 0.00 W/m2
02:49 33.9 °F 28.4 °F 30.09 in SE 7.0 mph 20.0 mph 80% 0.00 in 0.00 W/m2
02:54 33.9 °F 28.4 °F 30.09 in SE 14.0 mph 16.0 mph 80% 0.00 in 0.00 W/m2
02:59 34.0 °F 28.5 °F 30.09 in SE 9.0 mph 17.0 mph 80% 0.00 in 0.00 W/m2
03:04 34.1 °F 28.9 °F 30.09 in SSE 9.0 mph 17.0 mph 81% 0.00 in 0.00 W/m2
03:09 34.1 °F 28.9 °F 30.09 in SSE 12.0 mph 16.0 mph 81% 0.00 in 0.00 W/m2
03:14 34.1 °F 28.9 °F 30.09 in SE 11.0 mph 17.0 mph 81% 0.00 in 0.00 W/m2
03:19 34.1 °F 29.2 °F 30.08 in South 13.0 mph 18.0 mph 82% 0.00 in 0.00 W/m2
03:24 34.2 °F 29.6 °F 30.08 in SSE 16.0 mph 20.0 mph 83% 0.00 in 0.00 W/m2
03:29 34.3 °F 29.7 °F 30.08 in SSE 13.0 mph 20.0 mph 83% 0.00 in 0.00 W/m2
03:34 34.4 °F 29.8 °F 30.07 in SE 12.0 mph 20.0 mph 83% 0.00 in 0.00 W/m2
03:39 34.4 °F 30.1 °F 30.07 in SE 10.0 mph 20.0 mph 84% 0.00 in 0.00 W/m2
03:44 34.6 °F 30.3 °F 30.07 in SE 6.0 mph 19.0 mph 84% 0.00 in 0.00 W/m2
03:49 34.6 °F 30.3 °F 30.07 in SSE 15.0 mph 18.0 mph 84% 0.00 in 0.00 W/m2
03:54 34.7 °F 30.4 °F 30.07 in SSE 16.0 mph 19.0 mph 84% 0.00 in 0.00 W/m2
03:59 34.7 °F 30.7 °F 30.07 in SE 13.0 mph 19.0 mph 85% 0.00 in 0.00 W/m2
04:04 34.7 °F 30.7 °F 30.07 in SE 11.0 mph 19.0 mph 85% 0.00 in 0.00 W/m2
04:09 34.7 °F 30.7 °F 30.07 in SSE 14.0 mph 17.0 mph 85% 0.00 in 0.00 W/m2
04:14 34.8 °F 30.8 °F 30.07 in SE 4.0 mph 19.0 mph 85% 0.00 in 0.00 W/m2
04:19 34.8 °F 31.0 °F 30.06 in SE 13.0 mph 19.0 mph 86% 0.00 in 0.00 W/m2
04:24 34.8 °F 31.0 °F 30.07 in SE 9.0 mph 17.0 mph 86% 0.00 in 0.00 W/m2
04:29 34.8 °F 31.3 °F 30.06 in SSE 10.0 mph 17.0 mph 87% 0.00 in 0.00 W/m2
04:34 34.8 °F 31.3 °F 30.06 in SSE 13.0 mph 17.0 mph 87% 0.00 in 0.00 W/m2
04:39 34.8 °F 31.3 °F 30.05 in SE 11.0 mph 17.0 mph 87% 0.00 in 0.00 W/m2
04:44 34.7 °F 31.2 °F 30.04 in ESE 11.0 mph 17.0 mph 87% 0.00 in 0.00 W/m2
04:49 34.6 °F 31.4 °F 30.05 in SE 15.0 mph 16.0 mph 88% 0.00 in 0.00 W/m2
04:54 34.7 °F 31.5 °F 30.05 in SSE 12.0 mph 17.0 mph 88% 0.00 in 0.00 W/m2
04:59 34.8 °F 31.6 °F 30.05 in SE 11.0 mph 19.0 mph 88% 0.00 in 0.00 W/m2
05:04 34.8 °F 31.9 °F 30.04 in SE 9.0 mph 19.0 mph 89% 0.00 in 0.00 W/m2
05:09 34.8 °F 31.9 °F 30.05 in SSE 18.0 mph 18.0 mph 89% 0.00 in 0.00 W/m2
05:14 35.0 °F 32.1 °F 30.04 in SSE 19.0 mph 20.0 mph 89% 0.00 in 0.00 W/m2
05:19 35.0 °F 32.1 °F 30.04 in SE 16.0 mph 20.0 mph 89% 0.00 in 0.00 W/m2
05:24 35.1 °F 32.2 °F 30.04 in SSE 14.0 mph 17.0 mph 89% 0.00 in 0.00 W/m2
05:29 35.1 °F 32.2 °F 30.04 in SE 11.0 mph 20.0 mph 89% 0.00 in 0.00 W/m2
05:34 35.1 °F 32.5 °F 30.04 in SE 14.0 mph 20.0 mph 90% 0.00 in 0.00 W/m2
05:39 35.1 °F 32.5 °F 30.04 in SE 20.0 mph 20.0 mph 90% 0.00 in 0.00 W/m2
05:44 35.2 °F 32.6 °F 30.03 in SSE 11.0 mph 22.0 mph 90% 0.00 in 0.00 W/m2
05:49 35.2 °F 32.6 °F 30.03 in SSE 12.0 mph 22.0 mph 90% 0.00 in 0.00 W/m2
05:54 35.2 °F 32.6 °F 30.03 in SE 13.0 mph 22.0 mph 90% 0.00 in 0.00 W/m2
05:59 35.2 °F 32.6 °F 30.03 in SE 8.0 mph 19.0 mph 90% 0.00 in 0.00 W/m2
06:04 35.2 °F 32.6 °F 30.03 in SSE 15.0 mph 19.0 mph 90% 0.00 in 0.00 W/m2
06:09 35.2 °F 32.8 °F 30.03 in SE 10.0 mph 18.0 mph 91% 0.00 in 0.00 W/m2
06:14 35.2 °F 32.8 °F 30.02 in SE 17.0 mph 20.0 mph 91% 0.00 in 0.00 W/m2
06:19 35.0 °F 32.6 °F 30.02 in SE 12.0 mph 23.0 mph 91% 0.00 in 0.00 W/m2
06:24 35.0 °F 32.6 °F 30.02 in SE 10.0 mph 23.0 mph 91% 0.00 in 0.00 W/m2
06:29 35.0 °F 32.6 °F 30.02 in SSE 18.0 mph 22.0 mph 91% 0.00 in 0.00 W/m2
06:34 34.9 °F 32.5 °F 30.02 in SE 15.0 mph 21.0 mph 91% 0.00 in 0.00 W/m2
06:39 34.8 °F 32.7 °F 30.02 in SSE 14.0 mph 21.0 mph 92% 0.00 in 0.00 W/m2
06:44 34.8 °F 32.7 °F 30.02 in SSE 15.0 mph 21.0 mph 92% 0.00 in 0.00 W/m2
06:49 34.8 °F 32.7 °F 30.02 in SE 15.0 mph 21.0 mph 92% 0.00 in 0.00 W/m2
06:54 34.8 °F 32.7 °F 30.02 in SSE 17.0 mph 21.0 mph 92% 0.00 in 0.00 W/m2
06:59 34.9 °F 32.8 °F 30.01 in SE 19.0 mph 25.0 mph 92% 0.00 in 0.00 W/m2
07:04 34.9 °F 32.8 °F 30.01 in SSE 16.0 mph 25.0 mph 92% 0.00 in 0.00 W/m2
07:09 34.8 °F 32.7 °F 30.02 in SSE 10.0 mph 23.0 mph 92% 0.00 in 0.00 W/m2
07:14 34.8 °F 32.7 °F 30.02 in SSE 13.0 mph 23.0 mph 92% 0.00 in 0.00 W/m2
07:19 34.8 °F 32.7 °F 30.01 in SSE 12.0 mph 22.0 mph 92% 0.00 in 0.00 W/m2
07:24 34.8 °F 33.0 °F 30.01 in SSE 12.0 mph 19.0 mph 93% 0.00 in 0.00 W/m2
07:29 34.8 °F 32.7 °F 30.01 in SSE 15.0 mph 21.0 mph 92% 0.00 in 0.00 W/m2
07:34 34.8 °F 33.0 °F 30.01 in SSE 15.0 mph 26.0 mph 93% 0.00 in 5.00 W/m2
07:39 34.8 °F 33.0 °F 30.00 in SSE 14.0 mph 26.0 mph 93% 0.00 in 5.00 W/m2
07:44 34.9 °F 33.1 °F 30.00 in SSE 18.0 mph 26.0 mph 93% 0.00 in 7.00 W/m2
07:49 34.9 °F 33.1 °F 30.00 in SE 22.0 mph 24.0 mph 93% 0.00 in 11.00 W/m2
07:54 35.0 °F 33.2 °F 30.00 in SSE 10.0 mph 24.0 mph 93% 0.00 in 14.00 W/m2
07:59 35.1 °F 33.3 °F 30.00 in SE 18.0 mph 23.0 mph 93% 0.00 in 18.00 W/m2
08:04 35.2 °F 33.4 °F 30.00 in SSE 12.0 mph 26.0 mph 93% 0.00 in 16.00 W/m2
08:09 35.2 °F 33.4 °F 30.00 in SSE 19.0 mph 26.0 mph 93% 0.00 in 14.00 W/m2
08:14 35.2 °F 33.4 °F 30.00 in SE 12.0 mph 24.0 mph 93% 0.00 in 14.00 W/m2
08:19 35.3 °F 33.7 °F 30.00 in SSE 14.0 mph 21.0 mph 94% 0.00 in 14.00 W/m2
08:24 35.3 °F 33.7 °F 30.00 in SSE 14.0 mph 21.0 mph 94% 0.00 in 25.00 W/m2
08:29 35.4 °F 33.8 °F 30.00 in SSE 14.0 mph 21.0 mph 94% 0.00 in 19.00 W/m2
08:34 35.4 °F 33.8 °F 30.00 in SSE 12.0 mph 20.0 mph 94% 0.00 in 18.00 W/m2
08:39 35.4 °F 33.8 °F 30.01 in South 14.0 mph 20.0 mph 94% 0.00 in 19.00 W/m2
08:44 35.6 °F 34.0 °F 30.01 in SSE 18.0 mph 22.0 mph 94% 0.00 in 19.00 W/m2
08:49 35.7 °F 34.1 °F 30.00 in SE 12.0 mph 24.0 mph 94% 0.00 in 25.00 W/m2
08:54 35.8 °F 34.2 °F 30.01 in South 16.0 mph 24.0 mph 94% 0.00 in 23.00 W/m2
08:59 36.0 °F 34.4 °F 30.01 in SE 12.0 mph 21.0 mph 94% 0.00 in 21.00 W/m2
09:04 36.0 °F 34.4 °F 30.01 in SSE 11.0 mph 21.0 mph 94% 0.00 in 16.00 W/m2
09:09 36.0 °F 34.4 °F 30.00 in South 14.0 mph 23.0 mph 94% 0.00 in 14.00 W/m2
09:14 36.2 °F 34.6 °F 30.00 in SSE 11.0 mph 23.0 mph 94% 0.00 in 25.00 W/m2
09:19 36.2 °F 34.6 °F 30.00 in South 18.0 mph 23.0 mph 94% 0.00 in 44.00 W/m2
09:24 36.4 °F 34.8 °F 29.99 in SSE 17.0 mph 26.0 mph 94% 0.00 in 56.00 W/m2
09:29 36.5 °F 34.7 °F 29.99 in SSE 17.0 mph 26.0 mph 93% 0.00 in 70.00 W/m2
09:34 36.6 °F 35.0 °F 29.99 in SSE 22.0 mph 24.0 mph 94% 0.00 in 65.00 W/m2
09:39 36.8 °F 35.0 °F 29.99 in SSE 19.0 mph 24.0 mph 93% 0.00 in 69.00 W/m2
09:44 36.8 °F 35.0 °F 29.99 in SSE 16.0 mph 24.0 mph 93% 0.00 in 70.00 W/m2
09:49 36.9 °F 35.1 °F 29.98 in South 21.0 mph 25.0 mph 93% 0.00 in 65.00 W/m2
09:54 37.0 °F 35.2 °F 29.98 in South 18.0 mph 25.0 mph 93% 0.00 in 51.00 W/m2
09:59 37.0 °F 35.2 °F 29.99 in SSE 15.0 mph 24.0 mph 93% 0.00 in 63.00 W/m2
10:04 37.0 °F 34.9 °F 29.99 in SSE 18.0 mph 23.0 mph 92% 0.00 in 46.00 W/m2
10:09 37.1 °F 35.0 °F 29.98 in South 10.0 mph 25.0 mph 92% 0.00 in 93.00 W/m2
10:14 37.2 °F 35.1 °F 29.98 in SSW 21.0 mph 27.0 mph 92% 0.00 in 84.00 W/m2
10:19 37.3 °F 35.2 °F 29.98 in SSE 20.0 mph 27.0 mph 92% 0.00 in 90.00 W/m2
10:24 37.3 °F 35.2 °F 29.98 in SSE 23.0 mph 29.0 mph 92% 0.00 in 83.00 W/m2
10:29 37.4 °F 35.3 °F 29.98 in SSE 14.0 mph 29.0 mph 92% 0.00 in 81.00 W/m2
10:34 37.4 °F 35.3 °F 29.97 in South 19.0 mph 24.0 mph 92% 0.00 in 56.00 W/m2
10:39 37.2 °F 35.1 °F 29.98 in SSE 17.0 mph 23.0 mph 92% 0.00 in 42.00 W/m2
10:44 37.2 °F 35.1 °F 29.97 in SSE 12.0 mph 23.0 mph 92% 0.00 in 88.00 W/m2
10:49 37.3 °F 35.2 °F 29.98 in South 18.0 mph 24.0 mph 92% 0.00 in 84.00 W/m2
10:54 37.4 °F 35.3 °F 29.98 in SSW 12.0 mph 24.0 mph 92% 0.00 in 86.00 W/m2
10:59 37.5 °F 35.4 °F 29.98 in SSE 11.0 mph 20.0 mph 92% 0.00 in 93.00 W/m2
11:04 37.7 °F 35.6 °F 29.98 in SSE 15.0 mph 20.0 mph 92% 0.00 in 81.00 W/m2
11:09 37.9 °F 35.8 °F 29.97 in South 15.0 mph 20.0 mph 92% 0.00 in 93.00 W/m2
11:14 38.0 °F 35.9 °F 29.97 in South 21.0 mph 21.0 mph 92% 0.00 in 123.00 W/m2
11:19 38.3 °F 36.2 °F 29.97 in SE 14.0 mph 21.0 mph 92% 0.00 in 135.00 W/m2
11:24 38.5 °F 36.1 °F 29.96 in South 19.0 mph 25.0 mph 91% 0.00 in 146.00 W/m2
11:29 38.6 °F 36.2 °F 29.96 in South 17.0 mph 27.0 mph 91% 0.00 in 130.00 W/m2
11:34 38.7 °F 36.3 °F 29.96 in South 16.0 mph 27.0 mph 91% 0.00 in 130.00 W/m2
11:39 38.8 °F 36.4 °F 29.97 in South 12.0 mph 27.0 mph 91% 0.00 in 134.00 W/m2
11:44 38.9 °F 36.2 °F 29.97 in South 12.0 mph 24.0 mph 90% 0.00 in 141.00 W/m2
11:49 39.0 °F 36.3 °F 29.96 in South 16.0 mph 20.0 mph 90% 0.00 in 128.00 W/m2
11:54 39.2 °F 36.5 °F 29.96 in South 14.0 mph 22.0 mph 90% 0.00 in 144.00 W/m2
11:59 39.4 °F 36.7 °F 29.96 in SSW 15.0 mph 22.0 mph 90% 0.00 in 195.00 W/m2
12:04 39.7 °F 36.7 °F 29.95 in SSW 18.0 mph 24.0 mph 89% 0.00 in 214.00 W/m2
12:09 40.1 °F 37.1 °F 29.95 in SSW 18.0 mph 24.0 mph 89% 0.00 in 202.00 W/m2
12:14 40.0 °F 36.7 °F 29.95 in South 14.0 mph 22.0 mph 88% 0.00 in 156.00 W/m2
12:19 40.1 °F 36.8 °F 29.95 in South 15.0 mph 22.0 mph 88% 0.00 in 160.00 W/m2
12:24 40.2 °F 36.9 °F 29.95 in SSE 12.0 mph 22.0 mph 88% 0.00 in 151.00 W/m2
12:29 40.2 °F 36.6 °F 29.95 in SSE 10.0 mph 22.0 mph 87% 0.00 in 139.00 W/m2
12:34 40.4 °F 37.1 °F 29.95 in South 11.0 mph 22.0 mph 88% 0.00 in 141.00 W/m2
12:39 40.5 °F 36.9 °F 29.95 in SSE 13.0 mph 22.0 mph 87% 0.00 in 146.00 W/m2
12:44 40.7 °F 37.1 °F 29.94 in South 17.0 mph 23.0 mph 87% 0.00 in 178.00 W/m2
12:49 40.8 °F 37.2 °F 29.95 in South 24.0 mph 24.0 mph 87% 0.00 in 165.00 W/m2
12:54 41.0 °F 37.1 °F 29.94 in South 13.0 mph 25.0 mph 86% 0.00 in 163.00 W/m2
12:59 41.1 °F 37.2 °F 29.94 in SSW 12.0 mph 25.0 mph 86% 0.00 in 153.00 W/m2
13:04 41.0 °F 36.8 °F 29.94 in South 18.0 mph 27.0 mph 85% 0.00 in 148.00 W/m2
13:09 40.9 °F 36.7 °F 29.94 in SSW 15.0 mph 27.0 mph 85% 0.00 in 158.00 W/m2
13:14 40.9 °F 37.0 °F 29.94 in South 21.0 mph 25.0 mph 86% 0.00 in 135.00 W/m2
13:19 40.8 °F 36.9 °F 29.94 in South 17.0 mph 27.0 mph 86% 0.00 in 163.00 W/m2
13:24 40.9 °F 37.0 °F 29.93 in South 17.0 mph 27.0 mph 86% 0.00 in 174.00 W/m2
13:29 41.0 °F 37.1 °F 29.93 in South 15.0 mph 24.0 mph 86% 0.00 in 156.00 W/m2
13:34 40.9 °F 37.0 °F 29.93 in SSE 20.0 mph 24.0 mph 86% 0.00 in 160.00 W/m2
13:39 40.9 °F 37.0 °F 29.93 in SSW 12.0 mph 24.0 mph 86% 0.00 in 163.00 W/m2
13:44 41.0 °F 37.1 °F 29.93 in South 12.0 mph 21.0 mph 86% 0.00 in 165.00 W/m2
13:49 41.1 °F 37.2 °F 29.92 in South 13.0 mph 21.0 mph 86% 0.00 in 139.00 W/m2
13:54 41.1 °F 37.2 °F 29.92 in South 18.0 mph 22.0 mph 86% 0.00 in 137.00 W/m2
13:59 41.1 °F 37.2 °F 29.92 in South 19.0 mph 22.0 mph 86% 0.00 in 137.00 W/m2
14:04 41.2 °F 37.3 °F 29.92 in South 18.0 mph 23.0 mph 86% 0.00 in 146.00 W/m2
14:09 41.4 °F 37.5 °F 29.92 in South 14.0 mph 23.0 mph 86% 0.00 in 155.00 W/m2
14:14 41.5 °F 37.6 °F 29.91 in South 21.0 mph 23.0 mph 86% 0.00 in 171.00 W/m2
14:19 41.6 °F 37.7 °F 29.91 in South 13.0 mph 24.0 mph 86% 0.00 in 160.00 W/m2
14:24 41.7 °F 37.8 °F 29.91 in South 13.0 mph 24.0 mph 86% 0.00 in 156.00 W/m2
14:29 41.8 °F 37.9 °F 29.91 in South 15.0 mph 22.0 mph 86% 0.00 in 155.00 W/m2
14:34 41.9 °F 38.0 °F 29.91 in South 11.0 mph 21.0 mph 86% 0.00 in 162.00 W/m2
14:39 42.0 °F 37.8 °F 29.91 in South 11.0 mph 17.0 mph 85% 0.00 in 149.00 W/m2
14:44 42.0 °F 37.8 °F 29.90 in South 12.0 mph 17.0 mph 85% 0.00 in 156.00 W/m2
14:49 42.2 °F 38.3 °F 29.90 in SSE 15.0 mph 17.0 mph 86% 0.00 in 165.00 W/m2
14:54 42.3 °F 38.1 °F 29.90 in South 13.0 mph 19.0 mph 85% 0.00 in 171.00 W/m2
14:59 42.5 °F 38.3 °F 29.89 in South 20.0 mph 23.0 mph 85% 0.00 in 181.00 W/m2
15:04 42.6 °F 38.4 °F 29.89 in South 18.0 mph 23.0 mph 85% 0.00 in 190.00 W/m2
15:09 42.8 °F 38.3 °F 29.89 in South 12.0 mph 22.0 mph 84% 0.00 in 186.00 W/m2
15:14 42.9 °F 38.4 °F 29.89 in South 18.0 mph 20.0 mph 84% 0.00 in 195.00 W/m2
15:19 43.1 °F 38.6 °F 29.89 in SSW 15.0 mph 20.0 mph 84% 0.00 in 202.00 W/m2
15:24 43.2 °F 38.7 °F 29.88 in South 11.0 mph 22.0 mph 84% 0.00 in 213.00 W/m2
15:29 43.4 °F 38.9 °F 29.88 in South 16.0 mph 22.0 mph 84% 0.00 in 200.00 W/m2
15:34 43.6 °F 39.1 °F 29.88 in South 10.0 mph 18.0 mph 84% 0.00 in 199.00 W/m2
15:39 43.6 °F 38.8 °F 29.88 in SSW 9.0 mph 18.0 mph 83% 0.00 in 202.00 W/m2
15:44 43.8 °F 39.0 °F 29.88 in South 14.0 mph 20.0 mph 83% 0.00 in 204.00 W/m2
15:49 44.0 °F 39.2 °F 29.88 in South 15.0 mph 20.0 mph 83% 0.00 in 230.00 W/m2
15:54 44.1 °F 39.0 °F 29.88 in South 13.0 mph 22.0 mph 82% 0.00 in 236.00 W/m2
15:59 44.3 °F 39.2 °F 29.88 in South 10.0 mph 22.0 mph 82% 0.00 in 218.00 W/m2
16:04 44.5 °F 39.3 °F 29.88 in SW 13.0 mph 19.0 mph 82% 0.00 in 227.00 W/m2
16:09 44.5 °F 39.3 °F 29.87 in South 15.0 mph 20.0 mph 82% 0.00 in 202.00 W/m2
16:14 44.7 °F 39.5 °F 29.87 in SSE 17.0 mph 20.0 mph 82% 0.00 in 214.00 W/m2
16:19 44.7 °F 39.2 °F 29.86 in South 21.0 mph 21.0 mph 81% 0.00 in 221.00 W/m2
16:24 44.9 °F 39.4 °F 29.86 in South 15.0 mph 21.0 mph 81% 0.00 in 216.00 W/m2
16:29 44.9 °F 39.4 °F 29.87 in SSE 12.0 mph 21.0 mph 81% 0.00 in 230.00 W/m2
16:34 45.0 °F 39.5 °F 29.87 in South 11.0 mph 21.0 mph 81% 0.00 in 241.00 W/m2
16:39 45.1 °F 39.6 °F 29.86 in South 15.0 mph 21.0 mph 81% 0.00 in 243.00 W/m2
16:44 45.4 °F 39.9 °F 29.86 in SSW 16.0 mph 22.0 mph 81% 0.00 in 322.00 W/m2
16:49 45.9 °F 40.1 °F 29.86 in SW 9.0 mph 22.0 mph 80% 0.00 in 353.00 W/m2
16:54 46.5 °F 40.7 °F 29.86 in South 8.0 mph 21.0 mph 80% 0.00 in 359.00 W/m2
16:59 46.9 °F 40.7 °F 29.86 in SSE 13.0 mph 23.0 mph 79% 0.00 in 422.00 W/m2
17:04 47.2 °F 41.0 °F 29.85 in SSE 13.0 mph 23.0 mph 79% 0.00 in 313.00 W/m2
17:09 47.0 °F 40.5 °F 29.85 in South 10.0 mph 20.0 mph 78% 0.00 in 237.00 W/m2
17:14 47.7 °F 41.2 °F 29.85 in South 17.0 mph 19.0 mph 78% 0.00 in 499.00 W/m2
17:19 48.3 °F 41.4 °F 29.85 in SSE 15.0 mph 20.0 mph 77% 0.00 in 471.00 W/m2
17:24 48.4 °F 41.2 °F 29.85 in South 14.0 mph 20.0 mph 76% 0.00 in 476.00 W/m2
17:29 48.8 °F 41.6 °F 29.85 in South 15.0 mph 19.0 mph 76% 0.00 in 469.00 W/m2
17:34 49.2 °F 41.3 °F 29.85 in SE 9.0 mph 19.0 mph 74% 0.00 in 454.00 W/m2
17:39 49.2 °F 41.6 °F 29.84 in South 14.0 mph 17.0 mph 75% 0.00 in 441.00 W/m2
17:44 49.6 °F 41.7 °F 29.84 in SSE 15.0 mph 18.0 mph 74% 0.00 in 403.00 W/m2
17:49 49.8 °F 41.8 °F 29.84 in SSE 12.0 mph 18.0 mph 74% 0.00 in 345.00 W/m2
17:54 49.8 °F 41.8 °F 29.83 in South 12.0 mph 16.0 mph 74% 0.00 in 369.00 W/m2
17:59 50.2 °F 41.9 °F 29.83 in South 10.0 mph 17.0 mph 73% 0.00 in 380.00 W/m2
18:04 50.5 °F 42.2 °F 29.83 in South 12.0 mph 17.0 mph 73% 0.00 in 352.00 W/m2
18:09 50.4 °F 41.7 °F 29.83 in SSE 12.0 mph 15.0 mph 72% 0.00 in 339.00 W/m2
18:14 50.6 °F 42.3 °F 29.83 in SSE 7.0 mph 15.0 mph 73% 0.00 in 302.00 W/m2
18:19 50.7 °F 42.0 °F 29.83 in SSE 10.0 mph 15.0 mph 72% 0.00 in 302.00 W/m2
18:24 50.8 °F 42.1 °F 29.83 in SSE 8.0 mph 15.0 mph 72% 0.00 in 269.00 W/m2
18:29 50.8 °F 42.5 °F 29.83 in South 9.0 mph 14.0 mph 73% 0.00 in 272.00 W/m2
18:34 51.0 °F 42.3 °F 29.83 in SSE 12.0 mph 14.0 mph 72% 0.00 in 243.00 W/m2
18:39 50.6 °F 41.9 °F 29.83 in South 6.0 mph 15.0 mph 72% 0.00 in 237.00 W/m2
18:44 50.4 °F 42.1 °F 29.82 in SSE 8.0 mph 15.0 mph 73% 0.00 in 114.00 W/m2
18:49 49.7 °F 41.4 °F 29.82 in South 11.0 mph 13.0 mph 73% 0.00 in 33.00 W/m2
18:54 49.0 °F 41.4 °F 29.82 in SSE 11.0 mph 14.0 mph 75% 0.00 in 28.00 W/m2
18:59 48.3 °F 41.1 °F 29.82 in SSE 9.0 mph 14.0 mph 76% 0.00 in 28.00 W/m2
19:04 47.8 °F 40.9 °F 29.82 in SE 9.0 mph 14.0 mph 77% 0.00 in 40.00 W/m2
19:09 47.6 °F 41.1 °F 29.82 in SE 8.0 mph 14.0 mph 78% 0.00 in 44.00 W/m2
19:14 47.3 °F 41.1 °F 29.82 in SE 8.0 mph 13.0 mph 79% 0.00 in 40.00 W/m2
19:19 47.2 °F 41.0 °F 29.82 in SSE 8.0 mph 11.0 mph 79% 0.00 in 40.00 W/m2
19:24 47.3 °F 41.4 °F 29.82 in SE 10.0 mph 13.0 mph 80% 0.00 in 32.00 W/m2
19:29 47.4 °F 41.5 °F 29.81 in SSE 13.0 mph 13.0 mph 80% 0.00 in 30.00 W/m2
19:34 47.3 °F 41.4 °F 29.82 in SE 10.0 mph 14.0 mph 80% 0.00 in 28.00 W/m2
19:39 46.9 °F 41.1 °F 29.81 in SSE 11.0 mph 15.0 mph 80% 0.00 in 33.00 W/m2
19:44 46.2 °F 40.4 °F 29.81 in SSE 11.0 mph 15.0 mph 80% 0.00 in 32.00 W/m2
19:49 45.8 °F 40.3 °F 29.81 in SE 8.0 mph 15.0 mph 81% 0.00 in 26.00 W/m2
19:54 45.4 °F 40.2 °F 29.81 in SE 8.0 mph 15.0 mph 82% 0.00 in 23.00 W/m2
19:59 45.2 °F 40.0 °F 29.81 in SE 7.0 mph 14.0 mph 82% 0.00 in 16.00 W/m2
20:04 44.9 °F 40.0 °F 29.81 in SE 9.0 mph 13.0 mph 83% 0.00 in 12.00 W/m2
20:09 44.7 °F 39.9 °F 29.81 in SE 9.0 mph 12.0 mph 83% 0.00 in 9.00 W/m2
20:14 44.5 °F 40.0 °F 29.80 in SE 8.0 mph 11.0 mph 84% 0.00 in 5.00 W/m2
20:19 44.3 °F 39.8 °F 29.80 in ESE 8.0 mph 12.0 mph 84% 0.00 in 0.00 W/m2
20:24 44.3 °F 39.8 °F 29.80 in SE 10.0 mph 13.0 mph 84% 0.00 in 0.00 W/m2
20:29 44.2 °F 40.0 °F 29.80 in SE 11.0 mph 13.0 mph 85% 0.00 in 0.00 W/m2
20:34 44.1 °F 39.9 °F 29.80 in SE 9.0 mph 12.0 mph 85% 0.00 in 0.00 W/m2
20:39 44.0 °F 39.8 °F 29.80 in ESE 8.0 mph 12.0 mph 85% 0.00 in 0.00 W/m2
20:44 44.0 °F 39.8 °F 29.80 in SE 10.0 mph 11.0 mph 85% 0.00 in 0.00 W/m2
20:49 44.0 °F 39.8 °F 29.80 in ESE 11.0 mph 11.0 mph 85% 0.00 in 0.00 W/m2
20:54 44.1 °F 40.2 °F 29.80 in SSE 7.0 mph 12.0 mph 86% 0.00 in 0.00 W/m2
20:59 44.2 °F 40.0 °F 29.80 in SE 8.0 mph 12.0 mph 85% 0.00 in 0.00 W/m2
21:04 44.2 °F 40.0 °F 29.80 in ESE 7.0 mph 13.0 mph 85% 0.00 in 0.00 W/m2
21:09 44.1 °F 39.9 °F 29.80 in ESE 9.0 mph 14.0 mph 85% 0.00 in 0.00 W/m2
21:14 43.9 °F 39.7 °F 29.80 in SE 8.0 mph 14.0 mph 85% 0.00 in 0.00 W/m2
21:19 43.7 °F 39.8 °F 29.81 in ESE 10.0 mph 12.0 mph 86% 0.00 in 0.00 W/m2
21:24 43.5 °F 39.6 °F 29.81 in ESE 7.0 mph 12.0 mph 86% 0.00 in 0.00 W/m2
21:29 43.4 °F 39.5 °F 29.81 in ESE 10.0 mph 12.0 mph 86% 0.00 in 0.00 W/m2
21:34 43.3 °F 39.4 °F 29.81 in SE 8.0 mph 12.0 mph 86% 0.00 in 0.00 W/m2
21:39 43.1 °F 39.2 °F 29.81 in SE 7.0 mph 13.0 mph 86% 0.00 in 0.00 W/m2
21:44 42.9 °F 39.3 °F 29.81 in SE 7.0 mph 13.0 mph 87% 0.00 in 0.00 W/m2
21:49 42.8 °F 39.2 °F 29.81 in SE 8.0 mph 11.0 mph 87% 0.00 in 0.00 W/m2
21:54 42.7 °F 39.1 °F 29.81 in ESE 9.0 mph 11.0 mph 87% 0.00 in 0.00 W/m2
21:59 42.6 °F 39.0 °F 29.81 in SE 7.0 mph 10.0 mph 87% 0.00 in 0.00 W/m2
22:04 42.4 °F 38.8 °F 29.81 in SE 5.0 mph 10.0 mph 87% 0.00 in 0.00 W/m2
22:09 42.3 °F 38.7 °F 29.82 in SE 7.0 mph 9.0 mph 87% 0.00 in 0.00 W/m2
22:14 42.2 °F 38.9 °F 29.82 in SE 5.0 mph 9.0 mph 88% 0.00 in 0.00 W/m2
22:19 42.1 °F 38.8 °F 29.82 in ESE 4.0 mph 9.0 mph 88% 0.00 in 0.00 W/m2
22:24 42.0 °F 38.7 °F 29.82 in East 3.0 mph 8.0 mph 88% 0.00 in 0.00 W/m2
22:29 41.9 °F 38.6 °F 29.82 in East 2.0 mph 7.0 mph 88% 0.00 in 0.00 W/m2
22:34 41.7 °F 38.4 °F 29.82 in ESE 3.0 mph 7.0 mph 88% 0.00 in 0.00 W/m2
22:39 41.6 °F 38.6 °F 29.82 in ESE 3.0 mph 6.0 mph 89% 0.00 in 0.00 W/m2
22:44 41.3 °F 38.0 °F 29.82 in ESE 4.0 mph 6.0 mph 88% 0.00 in 0.00 W/m2
22:49 41.1 °F 38.1 °F 29.82 in ESE 4.0 mph 5.0 mph 89% 0.00 in 0.00 W/m2
22:54 40.8 °F 37.8 °F 29.82 in ESE 4.0 mph 5.0 mph 89% 0.00 in 0.00 W/m2
22:59 40.6 °F 37.6 °F 29.82 in ESE 4.0 mph 5.0 mph 89% 0.00 in 0.00 W/m2
23:04 40.5 °F 37.8 °F 29.82 in ESE 3.0 mph 5.0 mph 90% 0.00 in 0.00 W/m2
23:09 40.4 °F 37.7 °F 29.82 in ESE 3.0 mph 5.0 mph 90% 0.00 in 0.00 W/m2
23:14 40.2 °F 37.5 °F 29.82 in ESE 1.0 mph 5.0 mph 90% 0.00 in 0.00 W/m2
23:19 40.2 °F 37.5 °F 29.82 in ESE 3.0 mph 3.0 mph 90% 0.00 in 0.00 W/m2
23:24 40.2 °F 37.8 °F 29.82 in ESE 5.0 mph 5.0 mph 91% 0.00 in 0.00 W/m2
23:29 40.2 °F 37.8 °F 29.82 in SE 4.0 mph 5.0 mph 91% 0.00 in 0.00 W/m2
23:34 40.1 °F 37.7 °F 29.82 in ESE 3.0 mph 5.0 mph 91% 0.00 in 0.00 W/m2
23:39 40.2 °F 37.8 °F 29.82 in ESE 2.0 mph 5.0 mph 91% 0.00 in 0.00 W/m2
23:44 40.2 °F 37.8 °F 29.82 in ESE 3.0 mph 3.0 mph 91% 0.00 in 0.00 W/m2
23:49 40.4 °F 38.3 °F 29.82 in East 2.0 mph 5.0 mph 92% 0.00 in 0.00 W/m2
23:54 40.5 °F 38.1 °F 29.82 in ESE 2.0 mph 5.0 mph 91% 0.00 in 0.00 W/m2
23:59 40.7 °F 38.6 °F 29.82 in East 5.0 mph 6.0 mph 92% 0.00 in 0.00 W/m2
Bismarck, North Dakota, USA
Compliments of Weather Underground - 4 mb